sensor_id;sensor_type;location;lat;lon;timestamp;pressure;altitude;pressure_sealevel;temperature;humidity
11041;BME280;5573;49.592;8.662;2023-12-22T00:01:50;98663.44;;;4.38;100.00
11041;BME280;5573;49.592;8.662;2023-12-22T00:04:18;98646.38;;;4.34;100.00
11041;BME280;5573;49.592;8.662;2023-12-22T00:06:46;98636.84;;;4.33;100.00
11041;BME280;5573;49.592;8.662;2023-12-22T00:09:15;98636.63;;;4.28;100.00
11041;BME280;5573;49.592;8.662;2023-12-22T00:11:44;98631.97;;;4.30;100.00
11041;BME280;5573;49.592;8.662;2023-12-22T00:14:12;98636.63;;;4.28;100.00
11041;BME280;5573;49.592;8.662;2023-12-22T00:16:40;98639.28;;;4.28;100.00
11041;BME280;5573;49.592;8.662;2023-12-22T00:19:08;98645.97;;;4.24;100.00
11041;BME280;5573;49.592;8.662;2023-12-22T00:21:36;98654.22;;;4.21;100.00
11041;BME280;5573;49.592;8.662;2023-12-22T00:24:04;98670.47;;;4.24;100.00
11041;BME280;5573;49.592;8.662;2023-12-22T00:26:32;98645.72;;;4.19;100.00
11041;BME280;5573;49.592;8.662;2023-12-22T00:29:01;98656.91;;;4.27;100.00
11041;BME280;5573;49.592;8.662;2023-12-22T00:31:29;98669.47;;;4.32;100.00
11041;BME280;5573;49.592;8.662;2023-12-22T00:33:57;98658.09;;;4.25;100.00
11041;BME280;5573;49.592;8.662;2023-12-22T00:36:25;98658.31;;;4.17;100.00
11041;BME280;5573;49.592;8.662;2023-12-22T00:38:53;98664.56;;;4.16;100.00
11041;BME280;5573;49.592;8.662;2023-12-22T00:41:21;98646.53;;;4.19;100.00
11041;BME280;5573;49.592;8.662;2023-12-22T00:43:48;98655.66;;;4.17;100.00
11041;BME280;5573;49.592;8.662;2023-12-22T00:46:18;98646.31;;;4.14;100.00
11041;BME280;5573;49.592;8.662;2023-12-22T00:48:46;98652.00;;;4.18;100.00
11041;BME280;5573;49.592;8.662;2023-12-22T00:51:14;98657.69;;;4.15;100.00
11041;BME280;5573;49.592;8.662;2023-12-22T00:53:42;98657.25;;;4.05;100.00
11041;BME280;5573;49.592;8.662;2023-12-22T00:56:10;98642.25;;;4.05;100.00
11041;BME280;5573;49.592;8.662;2023-12-22T00:58:40;98635.56;;;4.09;100.00
11041;BME280;5573;49.592;8.662;2023-12-22T01:01:10;98615.84;;;3.99;100.00
11041;BME280;5573;49.592;8.662;2023-12-22T01:03:39;98610.22;;;4.08;100.00
11041;BME280;5573;49.592;8.662;2023-12-22T01:06:07;98611.63;;;4.04;100.00
11041;BME280;5573;49.592;8.662;2023-12-22T01:08:36;98619.94;;;4.08;100.00
11041;BME280;5573;49.592;8.662;2023-12-22T01:11:04;98615.66;;;4.00;100.00
11041;BME280;5573;49.592;8.662;2023-12-22T01:13:32;98611.16;;;3.87;100.00
11041;BME280;5573;49.592;8.662;2023-12-22T01:16:00;98619.69;;;3.89;100.00
11041;BME280;5573;49.592;8.662;2023-12-22T01:18:28;98612.66;;;4.10;100.00
11041;BME280;5573;49.592;8.662;2023-12-22T01:20:58;98625.22;;;4.01;100.00
11041;BME280;5573;49.592;8.662;2023-12-22T01:23:26;98617.50;;;4.06;100.00
11041;BME280;5573;49.592;8.662;2023-12-22T01:25:54;98615.09;;;4.05;100.00
11041;BME280;5573;49.592;8.662;2023-12-22T01:28:22;98606.97;;;4.06;100.00
11041;BME280;5573;49.592;8.662;2023-12-22T01:30:50;98601.91;;;4.11;100.00
11041;BME280;5573;49.592;8.662;2023-12-22T01:33:18;98611.47;;;4.12;100.00
11041;BME280;5573;49.592;8.662;2023-12-22T01:35:46;98620.78;;;4.15;100.00
11041;BME280;5573;49.592;8.662;2023-12-22T01:38:15;98660.72;;;4.12;100.00
11041;BME280;5573;49.592;8.662;2023-12-22T01:40:43;98687.66;;;4.14;100.00
11041;BME280;5573;49.592;8.662;2023-12-22T01:43:11;98709.97;;;4.11;100.00
11041;BME280;5573;49.592;8.662;2023-12-22T01:45:40;98725.78;;;4.11;100.00
11041;BME280;5573;49.592;8.662;2023-12-22T01:48:10;98699.41;;;4.11;100.00
11041;BME280;5573;49.592;8.662;2023-12-22T01:50:38;98686.66;;;4.08;100.00
11041;BME280;5573;49.592;8.662;2023-12-22T01:53:06;98656.56;;;3.89;100.00
11041;BME280;5573;49.592;8.662;2023-12-22T01:55:36;98665.75;;;4.07;100.00
11041;BME280;5573;49.592;8.662;2023-12-22T01:58:04;98659.84;;;3.98;100.00
11041;BME280;5573;49.592;8.662;2023-12-22T02:00:32;98654.03;;;4.09;100.00
11041;BME280;5573;49.592;8.662;2023-12-22T02:03:00;98657.44;;;4.10;100.00
11041;BME280;5573;49.592;8.662;2023-12-22T02:05:28;98645.09;;;4.10;100.00
11041;BME280;5573;49.592;8.662;2023-12-22T02:07:56;98644.06;;;4.05;100.00
11041;BME280;5573;49.592;8.662;2023-12-22T02:10:24;98639.19;;;4.02;100.00
11041;BME280;5573;49.592;8.662;2023-12-22T02:12:54;98643.28;;;4.17;100.00
11041;BME280;5573;49.592;8.662;2023-12-22T02:15:21;98630.94;;;4.24;100.00
11041;BME280;5573;49.592;8.662;2023-12-22T02:17:54;98632.97;;;4.29;100.00
11041;BME280;5573;49.592;8.662;2023-12-22T02:20:23;98637.47;;;4.35;100.00
11041;BME280;5573;49.592;8.662;2023-12-22T02:22:53;98626.50;;;4.31;100.00
11041;BME280;5573;49.592;8.662;2023-12-22T02:25:21;98616.97;;;4.37;100.00
11041;BME280;5573;49.592;8.662;2023-12-22T02:27:50;98627.34;;;4.38;100.00
11041;BME280;5573;49.592;8.662;2023-12-22T02:30:24;98638.53;;;4.60;100.00
11041;BME280;5573;49.592;8.662;2023-12-22T02:32:56;98705.69;;;4.58;100.00
11041;BME280;5573;49.592;8.662;2023-12-22T02:35:26;98713.13;;;4.54;100.00
11041;BME280;5573;49.592;8.662;2023-12-22T02:37:58;98676.63;;;4.51;100.00
11041;BME280;5573;49.592;8.662;2023-12-22T02:40:27;98649.25;;;4.52;100.00
11041;BME280;5573;49.592;8.662;2023-12-22T02:42:55;98649.44;;;4.44;100.00
11041;BME280;5573;49.592;8.662;2023-12-22T02:45:23;98654.31;;;4.47;100.00
11041;BME280;5573;49.592;8.662;2023-12-22T02:47:51;98665.88;;;4.46;100.00
11041;BME280;5573;49.592;8.662;2023-12-22T02:50:19;98683.13;;;4.49;100.00
11041;BME280;5573;49.592;8.662;2023-12-22T02:52:47;98678.06;;;4.54;100.00
11041;BME280;5573;49.592;8.662;2023-12-22T02:55:16;98662.63;;;4.44;100.00
11041;BME280;5573;49.592;8.662;2023-12-22T02:57:44;98679.66;;;4.42;100.00
11041;BME280;5573;49.592;8.662;2023-12-22T03:00:13;98708.06;;;4.46;100.00
11041;BME280;5573;49.592;8.662;2023-12-22T03:02:41;98705.22;;;4.41;100.00
11041;BME280;5573;49.592;8.662;2023-12-22T03:05:08;98694.25;;;4.44;100.00
11041;BME280;5573;49.592;8.662;2023-12-22T03:07:37;98682.06;;;4.43;100.00
11041;BME280;5573;49.592;8.662;2023-12-22T03:10:05;98680.47;;;4.42;100.00
11041;BME280;5573;49.592;8.662;2023-12-22T03:12:34;98674.56;;;4.40;100.00
11041;BME280;5573;49.592;8.662;2023-12-22T03:15:03;98680.88;;;4.39;100.00
11041;BME280;5573;49.592;8.662;2023-12-22T03:17:31;98674.97;;;4.37;100.00
11041;BME280;5573;49.592;8.662;2023-12-22T03:19:59;98683.72;;;4.44;100.00
11041;BME280;5573;49.592;8.662;2023-12-22T03:22:27;98674.00;;;4.51;100.00
11041;BME280;5573;49.592;8.662;2023-12-22T03:24:55;98667.72;;;4.52;100.00
11041;BME280;5573;49.592;8.662;2023-12-22T03:27:23;98675.03;;;4.50;100.00
11041;BME280;5573;49.592;8.662;2023-12-22T03:29:52;98689.22;;;4.56;100.00
11041;BME280;5573;49.592;8.662;2023-12-22T03:32:19;98678.44;;;4.51;100.00
11041;BME280;5573;49.592;8.662;2023-12-22T03:34:47;98667.31;;;4.62;100.00
11041;BME280;5573;49.592;8.662;2023-12-22T03:37:15;98661.22;;;4.55;100.00
11041;BME280;5573;49.592;8.662;2023-12-22T03:39:43;98672.19;;;4.58;100.00
11041;BME280;5573;49.592;8.662;2023-12-22T03:42:11;98654.16;;;4.68;100.00
11041;BME280;5573;49.592;8.662;2023-12-22T03:44:38;98658.63;;;4.61;100.00
11041;BME280;5573;49.592;8.662;2023-12-22T03:47:08;98666.31;;;4.69;100.00
11041;BME280;5573;49.592;8.662;2023-12-22T03:49:35;98653.34;;;4.74;100.00
11041;BME280;5573;49.592;8.662;2023-12-22T03:52:03;98650.88;;;4.66;100.00
11041;BME280;5573;49.592;8.662;2023-12-22T03:54:31;98637.28;;;4.63;100.00
11041;BME280;5573;49.592;8.662;2023-12-22T03:56:59;98642.38;;;4.71;100.00
11041;BME280;5573;49.592;8.662;2023-12-22T03:59:27;98636.28;;;4.70;100.00
11041;BME280;5573;49.592;8.662;2023-12-22T04:01:55;98641.75;;;4.62;100.00
11041;BME280;5573;49.592;8.662;2023-12-22T04:04:25;98652.13;;;4.64;100.00
11041;BME280;5573;49.592;8.662;2023-12-22T04:06:54;98668.75;;;4.71;100.00
11041;BME280;5573;49.592;8.662;2023-12-22T04:09:22;98685.59;;;4.70;100.00
11041;BME280;5573;49.592;8.662;2023-12-22T04:11:50;98688.63;;;4.73;100.00
11041;BME280;5573;49.592;8.662;2023-12-22T04:14:18;98694.53;;;4.75;100.00
11041;BME280;5573;49.592;8.662;2023-12-22T04:16:46;98716.25;;;4.84;100.00
11041;BME280;5573;49.592;8.662;2023-12-22T04:19:13;98710.78;;;4.85;100.00
11041;BME280;5573;49.592;8.662;2023-12-22T04:21:43;98718.69;;;4.85;100.00
11041;BME280;5573;49.592;8.662;2023-12-22T04:24:10;98708.16;;;4.85;100.00
11041;BME280;5573;49.592;8.662;2023-12-22T04:26:38;98709.97;;;4.78;100.00
11041;BME280;5573;49.592;8.662;2023-12-22T04:29:06;98709.78;;;4.80;100.00
11041;BME280;5573;49.592;8.662;2023-12-22T04:31:34;98705.50;;;4.72;100.00
11041;BME280;5573;49.592;8.662;2023-12-22T04:34:02;98735.53;;;4.71;100.00
11041;BME280;5573;49.592;8.662;2023-12-22T04:36:30;98716.88;;;4.79;100.00
11041;BME280;5573;49.592;8.662;2023-12-22T04:38:59;98704.28;;;4.68;100.00
11041;BME280;5573;49.592;8.662;2023-12-22T04:41:27;98696.34;;;4.68;100.00
11041;BME280;5573;49.592;8.662;2023-12-22T04:43:54;98713.59;;;4.71;100.00
11041;BME280;5573;49.592;8.662;2023-12-22T04:46:22;98726.38;;;4.67;100.00
11041;BME280;5573;49.592;8.662;2023-12-22T04:48:50;98724.75;;;4.66;100.00
11041;BME280;5573;49.592;8.662;2023-12-22T04:51:18;98725.75;;;4.65;100.00
11041;BME280;5573;49.592;8.662;2023-12-22T04:53:46;98725.38;;;4.68;100.00
11041;BME280;5573;49.592;8.662;2023-12-22T04:56:15;98717.81;;;4.59;100.00
11041;BME280;5573;49.592;8.662;2023-12-22T04:58:43;98715.00;;;4.54;100.00
11041;BME280;5573;49.592;8.662;2023-12-22T05:01:10;98716.00;;;4.53;100.00
11041;BME280;5573;49.592;8.662;2023-12-22T05:03:39;98720.03;;;4.49;100.00
11041;BME280;5573;49.592;8.662;2023-12-22T05:06:06;98718.25;;;4.62;100.00
11041;BME280;5573;49.592;8.662;2023-12-22T05:08:34;98721.50;;;4.64;100.00
11041;BME280;5573;49.592;8.662;2023-12-22T05:11:03;98725.56;;;4.60;100.00
11041;BME280;5573;49.592;8.662;2023-12-22T05:13:33;98731.63;;;4.61;100.00
11041;BME280;5573;49.592;8.662;2023-12-22T05:16:00;98740.56;;;4.66;100.00
11041;BME280;5573;49.592;8.662;2023-12-22T05:18:29;98733.06;;;4.70;100.00
11041;BME280;5573;49.592;8.662;2023-12-22T05:20:56;98738.38;;;4.83;100.00
11041;BME280;5573;49.592;8.662;2023-12-22T05:23:24;98730.88;;;4.86;100.00
11041;BME280;5573;49.592;8.662;2023-12-22T05:25:52;98737.16;;;4.85;100.00
11041;BME280;5573;49.592;8.662;2023-12-22T05:28:20;98767.19;;;4.84;100.00
11041;BME280;5573;49.592;8.662;2023-12-22T05:30:49;98787.28;;;4.79;100.00
11041;BME280;5573;49.592;8.662;2023-12-22T05:33:17;98800.47;;;4.72;100.00
11041;BME280;5573;49.592;8.662;2023-12-22T05:35:45;98783.78;;;4.65;100.00
11041;BME280;5573;49.592;8.662;2023-12-22T05:38:13;98779.94;;;4.68;100.00
11041;BME280;5573;49.592;8.662;2023-12-22T05:40:41;98780.72;;;4.62;100.00
11041;BME280;5573;49.592;8.662;2023-12-22T05:43:09;98781.53;;;4.62;100.00
11041;BME280;5573;49.592;8.662;2023-12-22T05:45:37;98783.75;;;4.59;100.00
11041;BME280;5573;49.592;8.662;2023-12-22T05:48:06;98786.19;;;4.54;100.00
11041;BME280;5573;49.592;8.662;2023-12-22T05:50:35;98781.94;;;4.53;100.00
11041;BME280;5573;49.592;8.662;2023-12-22T05:53:03;98794.31;;;4.59;100.00
11041;BME280;5573;49.592;8.662;2023-12-22T05:55:31;98782.09;;;4.51;100.00
11041;BME280;5573;49.592;8.662;2023-12-22T05:57:59;98774.66;;;4.61;100.00
11041;BME280;5573;49.592;8.662;2023-12-22T06:00:27;98777.66;;;4.52;100.00
11041;BME280;5573;49.592;8.662;2023-12-22T06:02:54;98770.16;;;4.55;100.00
11041;BME280;5573;49.592;8.662;2023-12-22T06:05:24;98771.13;;;4.48;100.00
11041;BME280;5573;49.592;8.662;2023-12-22T06:07:52;98773.75;;;4.41;100.00
11041;BME280;5573;49.592;8.662;2023-12-22T06:10:20;98779.25;;;4.46;100.00
11041;BME280;5573;49.592;8.662;2023-12-22T06:12:47;98764.47;;;4.52;100.00
11041;BME280;5573;49.592;8.662;2023-12-22T06:15:15;98768.53;;;4.54;100.00
11041;BME280;5573;49.592;8.662;2023-12-22T06:17:43;98769.75;;;4.52;100.00
11041;BME280;5573;49.592;8.662;2023-12-22T06:20:11;98773.00;;;4.54;100.00
11041;BME280;5573;49.592;8.662;2023-12-22T06:22:40;98777.66;;;4.58;100.00
11041;BME280;5573;49.592;8.662;2023-12-22T06:25:09;98790.91;;;4.65;100.00
11041;BME280;5573;49.592;8.662;2023-12-22T06:27:37;98797.19;;;4.70;100.00
11041;BME280;5573;49.592;8.662;2023-12-22T06:30:05;98788.72;;;4.81;100.00
11041;BME280;5573;49.592;8.662;2023-12-22T06:32:33;98785.25;;;4.81;100.00
11041;BME280;5573;49.592;8.662;2023-12-22T06:35:02;98787.06;;;4.80;100.00
11041;BME280;5573;49.592;8.662;2023-12-22T06:37:30;98782.03;;;4.85;100.00
11041;BME280;5573;49.592;8.662;2023-12-22T06:39:59;98789.97;;;4.99;100.00
11041;BME280;5573;49.592;8.662;2023-12-22T06:42:27;98799.97;;;5.16;100.00
11041;BME280;5573;49.592;8.662;2023-12-22T06:44:55;98813.94;;;5.10;100.00
11041;BME280;5573;49.592;8.662;2023-12-22T06:47:23;98812.13;;;5.11;100.00
11041;BME280;5573;49.592;8.662;2023-12-22T06:49:52;98820.84;;;5.11;100.00
11041;BME280;5573;49.592;8.662;2023-12-22T06:52:20;98837.31;;;5.13;100.00
11041;BME280;5573;49.592;8.662;2023-12-22T06:54:48;98850.31;;;5.21;100.00
11041;BME280;5573;49.592;8.662;2023-12-22T06:57:17;98846.06;;;5.20;100.00
11041;BME280;5573;49.592;8.662;2023-12-22T06:59:47;98851.34;;;5.27;100.00
11041;BME280;5573;49.592;8.662;2023-12-22T07:02:17;98846.25;;;5.25;100.00
11041;BME280;5573;49.592;8.662;2023-12-22T07:07:55;98863.31;;;5.16;100.00
11041;BME280;5573;49.592;8.662;2023-12-22T07:10:22;98857.63;;;5.13;100.00
11041;BME280;5573;49.592;8.662;2023-12-22T07:12:52;98858.63;;;5.12;100.00
11041;BME280;5573;49.592;8.662;2023-12-22T07:15:20;98852.78;;;5.29;100.00
11041;BME280;5573;49.592;8.662;2023-12-22T07:17:48;98836.94;;;5.29;100.00
11041;BME280;5573;49.592;8.662;2023-12-22T07:20:16;98849.53;;;5.34;100.00
11041;BME280;5573;49.592;8.662;2023-12-22T07:22:44;98849.72;;;5.32;100.00
11041;BME280;5573;49.592;8.662;2023-12-22T07:25:12;98848.72;;;5.33;100.00
11041;BME280;5573;49.592;8.662;2023-12-22T07:27:40;98858.69;;;5.31;100.00
11041;BME280;5573;49.592;8.662;2023-12-22T07:30:10;98870.66;;;5.27;100.00
11041;BME280;5573;49.592;8.662;2023-12-22T07:32:43;98865.38;;;5.27;100.00
11041;BME280;5573;49.592;8.662;2023-12-22T07:35:11;98858.91;;;5.43;100.00
11041;BME280;5573;49.592;8.662;2023-12-22T07:37:39;98867.63;;;5.37;100.00
11041;BME280;5573;49.592;8.662;2023-12-22T07:40:08;98869.03;;;5.33;100.00
11041;BME280;5573;49.592;8.662;2023-12-22T07:42:36;98865.38;;;5.41;100.00
11041;BME280;5573;49.592;8.662;2023-12-22T07:45:06;98874.53;;;5.51;100.00
11041;BME280;5573;49.592;8.662;2023-12-22T07:47:39;98885.50;;;5.55;100.00
11041;BME280;5573;49.592;8.662;2023-12-22T07:50:08;98882.28;;;5.66;100.00
11041;BME280;5573;49.592;8.662;2023-12-22T07:52:36;98882.13;;;5.87;98.58
11041;BME280;5573;49.592;8.662;2023-12-22T07:55:08;98888.44;;;5.86;99.34
11041;BME280;5573;49.592;8.662;2023-12-22T07:57:37;98881.31;;;5.87;99.38
11041;BME280;5573;49.592;8.662;2023-12-22T08:00:06;98889.06;;;5.95;98.39
11041;BME280;5573;49.592;8.662;2023-12-22T08:02:39;98878.88;;;5.98;99.62
11041;BME280;5573;49.592;8.662;2023-12-22T08:05:08;98879.25;;;6.15;95.98
11041;BME280;5573;49.592;8.662;2023-12-22T08:07:36;98890.66;;;6.09;96.58
11041;BME280;5573;49.592;8.662;2023-12-22T08:10:05;98891.09;;;6.06;97.74
11041;BME280;5573;49.592;8.662;2023-12-22T08:12:33;98889.03;;;6.14;95.99
11041;BME280;5573;49.592;8.662;2023-12-22T08:15:02;98874.38;;;6.18;95.28
11041;BME280;5573;49.592;8.662;2023-12-22T08:17:30;98887.00;;;6.10;97.59
11041;BME280;5573;49.592;8.662;2023-12-22T08:19:59;98871.94;;;6.17;96.24
11041;BME280;5573;49.592;8.662;2023-12-22T08:22:38;98866.66;;;6.17;96.09
11041;BME280;5573;49.592;8.662;2023-12-22T08:25:11;98865.44;;;6.32;94.68
11041;BME280;5573;49.592;8.662;2023-12-22T08:27:39;98861.31;;;6.37;93.84
11041;BME280;5573;49.592;8.662;2023-12-22T08:30:09;98874.97;;;6.40;94.27
11041;BME280;5573;49.592;8.662;2023-12-22T08:32:37;98884.31;;;6.43;95.18
11041;BME280;5573;49.592;8.662;2023-12-22T08:35:07;98883.72;;;6.47;93.54
11041;BME280;5573;49.592;8.662;2023-12-22T08:37:35;98896.31;;;6.45;95.11
11041;BME280;5573;49.592;8.662;2023-12-22T08:40:05;98906.91;;;6.45;95.61
11041;BME280;5573;49.592;8.662;2023-12-22T08:42:33;98893.69;;;6.32;99.38
11041;BME280;5573;49.592;8.662;2023-12-22T08:45:01;98890.03;;;6.20;100.00
11041;BME280;5573;49.592;8.662;2023-12-22T08:47:31;98881.72;;;6.10;100.00
11041;BME280;5573;49.592;8.662;2023-12-22T08:49:59;98881.72;;;6.10;100.00
11041;BME280;5573;49.592;8.662;2023-12-22T08:52:32;98889.66;;;6.10;100.00
11041;BME280;5573;49.592;8.662;2023-12-22T08:55:00;98889.84;;;6.21;100.00
11041;BME280;5573;49.592;8.662;2023-12-22T08:57:28;98895.34;;;6.20;100.00
11041;BME280;5573;49.592;8.662;2023-12-22T08:59:56;98881.09;;;6.21;100.00
11041;BME280;5573;49.592;8.662;2023-12-22T09:02:23;98879.84;;;6.30;99.55
11041;BME280;5573;49.592;8.662;2023-12-22T09:04:53;98891.84;;;6.39;98.17
11041;BME280;5573;49.592;8.662;2023-12-22T09:07:21;98891.47;;;6.36;99.17
11041;BME280;5573;49.592;8.662;2023-12-22T09:09:50;98899.00;;;6.32;99.96
11041;BME280;5573;49.592;8.662;2023-12-22T09:12:18;98897.94;;;6.46;97.07
11041;BME280;5573;49.592;8.662;2023-12-22T09:14:46;98899.97;;;6.44;98.80
11041;BME280;5573;49.592;8.662;2023-12-22T09:17:14;98903.63;;;6.56;98.64
11041;BME280;5573;49.592;8.662;2023-12-22T09:19:43;98902.38;;;6.59;97.85
11041;BME280;5573;49.592;8.662;2023-12-22T09:22:10;98906.88;;;6.58;97.97
11041;BME280;5573;49.592;8.662;2023-12-22T09:24:38;98909.53;;;6.58;96.31
11041;BME280;5573;49.592;8.662;2023-12-22T09:27:08;98900.16;;;6.49;98.18
11041;BME280;5573;49.592;8.662;2023-12-22T09:29:36;98904.84;;;6.54;97.57
11041;BME280;5573;49.592;8.662;2023-12-22T09:32:05;98906.28;;;6.50;98.14
11041;BME280;5573;49.592;8.662;2023-12-22T09:34:33;98900.56;;;6.59;97.11
11041;BME280;5573;49.592;8.662;2023-12-22T09:37:01;98895.06;;;6.61;96.96
11041;BME280;5573;49.592;8.662;2023-12-22T09:39:29;98892.84;;;6.58;96.64
11041;BME280;5573;49.592;8.662;2023-12-22T09:41:56;98896.06;;;6.60;98.62
11041;BME280;5573;49.592;8.662;2023-12-22T09:44:30;98899.34;;;6.62;97.45
11041;BME280;5573;49.592;8.662;2023-12-22T09:46:59;98892.22;;;6.62;97.00
11041;BME280;5573;49.592;8.662;2023-12-22T09:49:32;98892.00;;;6.64;97.48
11041;BME280;5573;49.592;8.662;2023-12-22T09:52:01;98887.88;;;6.74;96.73
11041;BME280;5573;49.592;8.662;2023-12-22T09:54:30;98885.41;;;6.86;94.75
11041;BME280;5573;49.592;8.662;2023-12-22T09:56:59;98891.13;;;6.83;95.91
11041;BME280;5573;49.592;8.662;2023-12-22T09:59:47;98890.06;;;6.91;95.08
11041;BME280;5573;49.592;8.662;2023-12-22T10:02:16;98888.63;;;6.95;94.12
11041;BME280;5573;49.592;8.662;2023-12-22T10:04:45;98876.59;;;6.99;94.86
11041;BME280;5573;49.592;8.662;2023-12-22T10:07:14;98888.03;;;6.99;95.04
11041;BME280;5573;49.592;8.662;2023-12-22T10:09:42;98881.84;;;7.12;93.48
11041;BME280;5573;49.592;8.662;2023-12-22T10:12:11;98881.66;;;7.07;94.10
11041;BME280;5573;49.592;8.662;2023-12-22T10:14:39;98892.00;;;7.15;93.74
11041;BME280;5573;49.592;8.662;2023-12-22T10:17:09;98889.53;;;7.20;93.02
11041;BME280;5573;49.592;8.662;2023-12-22T10:19:38;98887.91;;;7.25;92.98
11041;BME280;5573;49.592;8.662;2023-12-22T10:22:06;98881.34;;;7.28;92.78
11041;BME280;5573;49.592;8.662;2023-12-22T10:24:38;98883.38;;;7.32;92.06
11041;BME280;5573;49.592;8.662;2023-12-22T10:27:05;98872.78;;;7.32;92.67
11041;BME280;5573;49.592;8.662;2023-12-22T10:29:33;98858.84;;;7.44;91.34
11041;BME280;5573;49.592;8.662;2023-12-22T10:32:02;98861.13;;;7.40;92.53
11041;BME280;5573;49.592;8.662;2023-12-22T10:34:35;98860.72;;;7.37;92.76
11041;BME280;5573;49.592;8.662;2023-12-22T10:37:03;98854.38;;;7.44;91.78
11041;BME280;5573;49.592;8.662;2023-12-22T10:39:32;98851.88;;;7.49;91.92
11041;BME280;5573;49.592;8.662;2023-12-22T10:42:00;98837.97;;;7.54;90.41
11041;BME280;5573;49.592;8.662;2023-12-22T10:44:29;98847.19;;;7.51;92.27
11041;BME280;5573;49.592;8.662;2023-12-22T10:46:57;98846.91;;;7.59;91.02
11041;BME280;5573;49.592;8.662;2023-12-22T10:49:26;98831.66;;;7.55;91.62
11041;BME280;5573;49.592;8.662;2023-12-22T10:51:55;98834.56;;;7.71;89.53
11041;BME280;5573;49.592;8.662;2023-12-22T10:54:23;98832.16;;;7.70;90.24
11041;BME280;5573;49.592;8.662;2023-12-22T10:56:51;98814.00;;;7.67;90.70
11041;BME280;5573;49.592;8.662;2023-12-22T10:59:22;98807.22;;;7.77;90.28
11041;BME280;5573;49.592;8.662;2023-12-22T11:01:51;98816.19;;;7.76;90.05
11041;BME280;5573;49.592;8.662;2023-12-22T11:04:20;98812.53;;;7.77;89.88
11041;BME280;5573;49.592;8.662;2023-12-22T11:06:51;98802.66;;;7.85;89.73
11041;BME280;5573;49.592;8.662;2023-12-22T11:09:23;98802.97;;;7.95;87.92
11041;BME280;5573;49.592;8.662;2023-12-22T11:11:52;98808.84;;;7.97;88.95
11041;BME280;5573;49.592;8.662;2023-12-22T11:14:21;98803.94;;;8.00;89.94
11041;BME280;5573;49.592;8.662;2023-12-22T11:16:49;98788.69;;;7.96;88.54
11041;BME280;5573;49.592;8.662;2023-12-22T11:19:19;98779.31;;;7.93;90.07
11041;BME280;5573;49.592;8.662;2023-12-22T11:21:50;98792.28;;;8.01;88.96
11041;BME280;5573;49.592;8.662;2023-12-22T11:24:18;98782.06;;;8.05;88.67
11041;BME280;5573;49.592;8.662;2023-12-22T11:26:49;98778.00;;;8.02;89.14
11041;BME280;5573;49.592;8.662;2023-12-22T11:29:20;98767.78;;;8.06;88.77
11041;BME280;5573;49.592;8.662;2023-12-22T11:31:53;98771.38;;;8.11;89.03
11041;BME280;5573;49.592;8.662;2023-12-22T11:34:23;98754.97;;;8.03;91.14
11041;BME280;5573;49.592;8.662;2023-12-22T11:36:54;98750.59;;;7.90;93.60
11041;BME280;5573;49.592;8.662;2023-12-22T11:39:22;98753.31;;;7.84;93.49
11041;BME280;5573;49.592;8.662;2023-12-22T11:41:54;98736.50;;;7.71;95.25
11041;BME280;5573;49.592;8.662;2023-12-22T11:44:22;98744.69;;;7.70;96.02
11041;BME280;5573;49.592;8.662;2023-12-22T11:47:03;98736.03;;;7.56;98.09
11041;BME280;5573;49.592;8.662;2023-12-22T11:49:34;98739.28;;;7.58;98.46
11041;BME280;5573;49.592;8.662;2023-12-22T11:52:10;98725.50;;;7.50;100.00
11041;BME280;5573;49.592;8.662;2023-12-22T11:54:44;98727.59;;;7.41;100.00
11041;BME280;5573;49.592;8.662;2023-12-22T11:57:32;98729.47;;;7.41;100.00
11041;BME280;5573;49.592;8.662;2023-12-22T12:00:03;98724.31;;;7.46;100.00
11041;BME280;5573;49.592;8.662;2023-12-22T12:02:39;98714.16;;;7.43;100.00
11041;BME280;5573;49.592;8.662;2023-12-22T12:05:09;98709.06;;;7.41;100.00
11041;BME280;5573;49.592;8.662;2023-12-22T12:07:42;98708.03;;;7.42;100.00
11041;BME280;5573;49.592;8.662;2023-12-22T12:10:50;98706.41;;;7.41;100.00
11041;BME280;5573;49.592;8.662;2023-12-22T12:13:22;98700.97;;;7.36;100.00
11041;BME280;5573;49.592;8.662;2023-12-22T12:15:51;98695.41;;;7.44;100.00
11041;BME280;5573;49.592;8.662;2023-12-22T12:18:21;98694.72;;;7.49;100.00
11041;BME280;5573;49.592;8.662;2023-12-22T12:20:49;98690.31;;;7.61;100.00
11041;BME280;5573;49.592;8.662;2023-12-22T12:23:18;98684.66;;;7.57;100.00
11041;BME280;5573;49.592;8.662;2023-12-22T12:25:47;98680.69;;;7.66;100.00
11041;BME280;5573;49.592;8.662;2023-12-22T12:28:15;98677.59;;;7.69;100.00
11041;BME280;5573;49.592;8.662;2023-12-22T12:30:47;98673.63;;;7.78;100.00
11041;BME280;5573;49.592;8.662;2023-12-22T12:33:15;98663.53;;;7.87;100.00
11041;BME280;5573;49.592;8.662;2023-12-22T12:35:43;98675.25;;;7.98;99.97
11041;BME280;5573;49.592;8.662;2023-12-22T12:38:17;98646.44;;;7.83;99.05
11041;BME280;5573;49.592;8.662;2023-12-22T12:40:45;98672.97;;;8.01;99.94
11041;BME280;5573;49.592;8.662;2023-12-22T12:43:15;98663.78;;;8.04;100.00
11041;BME280;5573;49.592;8.662;2023-12-22T12:45:43;98669.56;;;8.12;99.35
11041;BME280;5573;49.592;8.662;2023-12-22T12:48:16;98676.19;;;8.21;99.37
11041;BME280;5573;49.592;8.662;2023-12-22T12:50:44;98671.81;;;8.27;99.33
11041;BME280;5573;49.592;8.662;2023-12-22T12:53:12;98673.91;;;8.25;99.82
11041;BME280;5573;49.592;8.662;2023-12-22T12:55:40;98676.31;;;8.26;100.00
11041;BME280;5573;49.592;8.662;2023-12-22T12:58:09;98677.31;;;8.32;98.71
11041;BME280;5573;49.592;8.662;2023-12-22T13:00:36;98669.97;;;8.27;99.17
11041;BME280;5573;49.592;8.662;2023-12-22T13:03:05;98666.25;;;8.35;98.51
11041;BME280;5573;49.592;8.662;2023-12-22T13:05:35;98681.72;;;8.38;99.42
11041;BME280;5573;49.592;8.662;2023-12-22T13:08:06;98668.81;;;8.42;99.46
11041;BME280;5573;49.592;8.662;2023-12-22T13:10:35;98668.59;;;8.43;98.22
11041;BME280;5573;49.592;8.662;2023-12-22T13:13:05;98666.97;;;8.42;98.50
11041;BME280;5573;49.592;8.662;2023-12-22T13:15:32;98665.47;;;8.46;98.95
11041;BME280;5573;49.592;8.662;2023-12-22T13:18:01;98662.25;;;8.44;100.00
11041;BME280;5573;49.592;8.662;2023-12-22T13:20:29;98659.16;;;8.47;100.00
11041;BME280;5573;49.592;8.662;2023-12-22T13:22:59;98671.69;;;8.40;100.00
11041;BME280;5573;49.592;8.662;2023-12-22T13:25:27;98667.41;;;8.39;99.98
11041;BME280;5573;49.592;8.662;2023-12-22T13:27:56;98666.16;;;8.42;100.00